sensor_id;sensor_type;location;lat;lon;timestamp;pressure;altitude;pressure_sealevel;temperature;humidity
77450;BME280;66536;53.150;18.172;2023-06-10T00:02:01;101364.68;;;17.80;65.65
77450;BME280;66536;53.150;18.172;2023-06-10T00:04:28;101355.70;;;17.79;65.80
77450;BME280;66536;53.150;18.172;2023-06-10T00:06:54;101362.24;;;17.76;65.95
77450;BME280;66536;53.150;18.172;2023-06-10T00:09:21;101366.42;;;17.73;65.76
77450;BME280;66536;53.150;18.172;2023-06-10T00:11:49;101369.21;;;17.71;65.94
77450;BME280;66536;53.150;18.172;2023-06-10T00:14:16;101367.26;;;17.69;65.91
77450;BME280;66536;53.150;18.172;2023-06-10T00:16:42;101368.76;;;17.68;65.94
77450;BME280;66536;53.150;18.172;2023-06-10T00:19:11;101374.11;;;17.66;65.96
77450;BME280;66536;53.150;18.172;2023-06-10T00:21:40;101375.25;;;17.64;66.07
77450;BME280;66536;53.150;18.172;2023-06-10T00:24:07;101374.02;;;17.63;66.21
77450;BME280;66536;53.150;18.172;2023-06-10T00:26:39;101372.31;;;17.62;66.19
77450;BME280;66536;53.150;18.172;2023-06-10T00:29:07;101380.30;;;17.61;66.51
77450;BME280;66536;53.150;18.172;2023-06-10T00:31:35;101376.21;;;17.60;66.29
77450;BME280;66536;53.150;18.172;2023-06-10T00:34:02;101376.38;;;17.60;66.25
77450;BME280;66536;53.150;18.172;2023-06-10T00:36:30;101378.06;;;17.61;66.26
77450;BME280;66536;53.150;18.172;2023-06-10T00:38:57;101380.30;;;17.60;66.26
77450;BME280;66536;53.150;18.172;2023-06-10T00:41:24;101377.52;;;17.60;66.11
77450;BME280;66536;53.150;18.172;2023-06-10T00:43:52;101378.14;;;17.59;66.15
77450;BME280;66536;53.150;18.172;2023-06-10T00:46:20;101377.22;;;17.61;65.91
77450;BME280;66536;53.150;18.172;2023-06-10T00:48:47;101374.83;;;17.61;66.00
77450;BME280;66536;53.150;18.172;2023-06-10T00:51:16;101375.23;;;17.62;65.96
77450;BME280;66536;53.150;18.172;2023-06-10T00:53:43;101377.66;;;17.62;65.86
77450;BME280;66536;53.150;18.172;2023-06-10T00:56:11;101380.97;;;17.62;65.79
77450;BME280;66536;53.150;18.172;2023-06-10T00:58:40;101386.98;;;17.62;65.60
77450;BME280;66536;53.150;18.172;2023-06-10T01:01:06;101387.73;;;17.60;65.58
77450;BME280;66536;53.150;18.172;2023-06-10T01:03:33;101390.31;;;17.58;65.59
77450;BME280;66536;53.150;18.172;2023-06-10T01:06:14;101394.78;;;17.56;65.69
77450;BME280;66536;53.150;18.172;2023-06-10T01:08:52;101400.05;;;17.55;65.69
77450;BME280;66536;53.150;18.172;2023-06-10T01:11:30;101402.70;;;17.54;65.73
77450;BME280;66536;53.150;18.172;2023-06-10T01:14:01;101404.98;;;17.53;65.83
77450;BME280;66536;53.150;18.172;2023-06-10T01:16:29;101405.08;;;17.52;65.53
77450;BME280;66536;53.150;18.172;2023-06-10T01:18:56;101406.02;;;17.53;65.45
77450;BME280;66536;53.150;18.172;2023-06-10T01:21:25;101406.79;;;17.55;65.42
77450;BME280;66536;53.150;18.172;2023-06-10T01:23:54;101402.04;;;17.55;65.31
77450;BME280;66536;53.150;18.172;2023-06-10T01:26:26;101410.32;;;17.55;65.22
77450;BME280;66536;53.150;18.172;2023-06-10T01:28:59;101411.00;;;17.55;65.33
77450;BME280;66536;53.150;18.172;2023-06-10T01:31:52;101410.14;;;17.54;65.34
77450;BME280;66536;53.150;18.172;2023-06-10T01:34:23;101411.20;;;17.52;65.23
77450;BME280;66536;53.150;18.172;2023-06-10T01:36:53;101410.11;;;17.50;65.41
77450;BME280;66536;53.150;18.172;2023-06-10T01:39:23;101414.41;;;17.48;65.40
77450;BME280;66536;53.150;18.172;2023-06-10T01:41:52;101416.10;;;17.45;65.48
77450;BME280;66536;53.150;18.172;2023-06-10T01:44:20;101420.03;;;17.42;65.40
77450;BME280;66536;53.150;18.172;2023-06-10T01:46:48;101421.59;;;17.39;65.58
77450;BME280;66536;53.150;18.172;2023-06-10T01:49:14;101422.41;;;17.36;65.53
77450;BME280;66536;53.150;18.172;2023-06-10T01:51:43;101430.52;;;17.33;65.54
77450;BME280;66536;53.150;18.172;2023-06-10T01:54:10;101429.21;;;17.30;65.58
77450;BME280;66536;53.150;18.172;2023-06-10T01:56:37;101434.05;;;17.28;65.76
77450;BME280;66536;53.150;18.172;2023-06-10T01:59:03;101432.59;;;17.26;65.66
77450;BME280;66536;53.150;18.172;2023-06-10T02:01:30;101438.27;;;17.24;65.76
77450;BME280;66536;53.150;18.172;2023-06-10T02:03:57;101436.88;;;17.23;65.71
77450;BME280;66536;53.150;18.172;2023-06-10T02:06:23;101443.81;;;17.23;65.80
77450;BME280;66536;53.150;18.172;2023-06-10T02:08:50;101439.91;;;17.21;65.77
77450;BME280;66536;53.150;18.172;2023-06-10T02:11:17;101448.70;;;17.20;65.86
77450;BME280;66536;53.150;18.172;2023-06-10T02:13:43;101456.14;;;17.19;65.79
77450;BME280;66536;53.150;18.172;2023-06-10T02:16:10;101452.66;;;17.18;65.71
77450;BME280;66536;53.150;18.172;2023-06-10T02:18:40;101452.17;;;17.17;65.62
77450;BME280;66536;53.150;18.172;2023-06-10T02:21:09;101456.70;;;17.16;65.72
77450;BME280;66536;53.150;18.172;2023-06-10T02:23:36;101459.27;;;17.14;65.62
77450;BME280;66536;53.150;18.172;2023-06-10T02:26:04;101458.21;;;17.10;65.50
77450;BME280;66536;53.150;18.172;2023-06-10T02:28:31;101454.54;;;17.07;65.50
77450;BME280;66536;53.150;18.172;2023-06-10T02:30:58;101451.83;;;17.03;65.44
77450;BME280;66536;53.150;18.172;2023-06-10T02:33:26;101454.23;;;17.00;65.42
77450;BME280;66536;53.150;18.172;2023-06-10T02:35:54;101455.42;;;16.96;65.39
77450;BME280;66536;53.150;18.172;2023-06-10T02:38:22;101458.48;;;16.93;65.52
77450;BME280;66536;53.150;18.172;2023-06-10T02:40:49;101458.25;;;16.90;65.28
77450;BME280;66536;53.150;18.172;2023-06-10T02:43:16;101462.42;;;16.87;65.48
77450;BME280;66536;53.150;18.172;2023-06-10T02:45:44;101466.17;;;16.84;65.57
77450;BME280;66536;53.150;18.172;2023-06-10T02:48:11;101469.66;;;16.82;65.64
77450;BME280;66536;53.150;18.172;2023-06-10T02:50:38;101472.30;;;16.77;65.78
77450;BME280;66536;53.150;18.172;2023-06-10T02:53:15;101468.92;;;16.74;65.75
77450;BME280;66536;53.150;18.172;2023-06-10T02:55:45;101471.15;;;16.73;65.81
77450;BME280;66536;53.150;18.172;2023-06-10T02:58:15;101473.39;;;16.72;65.79
77450;BME280;66536;53.150;18.172;2023-06-10T03:00:43;101479.01;;;16.69;65.90
77450;BME280;66536;53.150;18.172;2023-06-10T03:03:10;101481.94;;;16.69;66.00
77450;BME280;66536;53.150;18.172;2023-06-10T03:05:46;101495.58;;;16.69;66.09
77450;BME280;66536;53.150;18.172;2023-06-10T03:08:13;101499.89;;;16.68;66.30
77450;BME280;66536;53.150;18.172;2023-06-10T03:10:41;101504.67;;;16.69;66.33
77450;BME280;66536;53.150;18.172;2023-06-10T03:13:08;101509.08;;;16.71;66.35
77450;BME280;66536;53.150;18.172;2023-06-10T03:15:36;101514.80;;;16.72;66.43
77450;BME280;66536;53.150;18.172;2023-06-10T03:18:06;101513.35;;;16.75;66.22
77450;BME280;66536;53.150;18.172;2023-06-10T03:20:33;101519.64;;;16.79;66.06
77450;BME280;66536;53.150;18.172;2023-06-10T03:23:05;101518.21;;;16.80;65.83
77450;BME280;66536;53.150;18.172;2023-06-10T03:25:33;101517.73;;;16.82;65.80
77450;BME280;66536;53.150;18.172;2023-06-10T03:28:00;101521.09;;;16.86;65.62
77450;BME280;66536;53.150;18.172;2023-06-10T03:30:28;101520.63;;;16.89;65.45
77450;BME280;66536;53.150;18.172;2023-06-10T03:32:55;101518.23;;;16.94;65.31
77450;BME280;66536;53.150;18.172;2023-06-10T03:35:24;101525.86;;;16.99;64.98
77450;BME280;66536;53.150;18.172;2023-06-10T03:37:51;101524.73;;;17.04;64.78
77450;BME280;66536;53.150;18.172;2023-06-10T03:40:17;101527.55;;;17.11;64.70
77450;BME280;66536;53.150;18.172;2023-06-10T03:42:45;101535.02;;;17.19;64.30
77450;BME280;66536;53.150;18.172;2023-06-10T03:45:13;101534.58;;;17.28;64.05
77450;BME280;66536;53.150;18.172;2023-06-10T03:47:40;101540.82;;;17.36;63.80
77450;BME280;66536;53.150;18.172;2023-06-10T03:50:09;101540.92;;;17.46;63.48
77450;BME280;66536;53.150;18.172;2023-06-10T03:52:37;101546.17;;;17.55;62.37
77450;BME280;66536;53.150;18.172;2023-06-10T03:55:06;101546.61;;;17.63;62.06
77450;BME280;66536;53.150;18.172;2023-06-10T03:57:33;101556.20;;;17.74;61.39
77450;BME280;66536;53.150;18.172;2023-06-10T04:00:00;101557.20;;;17.85;61.31
77450;BME280;66536;53.150;18.172;2023-06-10T04:02:26;101564.80;;;17.93;60.83
77450;BME280;66536;53.150;18.172;2023-06-10T04:04:53;101574.43;;;17.98;60.32
77450;BME280;66536;53.150;18.172;2023-06-10T04:07:20;101574.67;;;18.00;60.17
77450;BME280;66536;53.150;18.172;2023-06-10T04:09:47;101587.03;;;18.01;59.40
77450;BME280;66536;53.150;18.172;2023-06-10T04:12:14;101581.38;;;18.02;59.19
77450;BME280;66536;53.150;18.172;2023-06-10T04:14:41;101574.00;;;18.08;58.75
77450;BME280;66536;53.150;18.172;2023-06-10T04:17:08;101585.48;;;18.17;57.67
77450;BME280;66536;53.150;18.172;2023-06-10T04:19:36;101581.79;;;18.26;57.09
77450;BME280;66536;53.150;18.172;2023-06-10T04:22:03;101578.50;;;18.36;56.67
77450;BME280;66536;53.150;18.172;2023-06-10T04:24:31;101579.73;;;18.48;55.95
77450;BME280;66536;53.150;18.172;2023-06-10T04:26:58;101583.75;;;18.59;55.43
77450;BME280;66536;53.150;18.172;2023-06-10T04:29:25;101587.20;;;18.70;55.04
77450;BME280;66536;53.150;18.172;2023-06-10T04:31:52;101586.91;;;18.81;53.88
77450;BME280;66536;53.150;18.172;2023-06-10T04:34:19;101591.67;;;18.89;54.04
77450;BME280;66536;53.150;18.172;2023-06-10T04:36:46;101592.79;;;19.01;54.01
77450;BME280;66536;53.150;18.172;2023-06-10T04:39:13;101590.99;;;19.11;52.88
77450;BME280;66536;53.150;18.172;2023-06-10T04:41:40;101587.33;;;19.10;52.64
77450;BME280;66536;53.150;18.172;2023-06-10T04:44:07;101587.42;;;19.07;52.24
77450;BME280;66536;53.150;18.172;2023-06-10T04:46:34;101589.12;;;19.04;51.97
77450;BME280;66536;53.150;18.172;2023-06-10T04:49:01;101585.75;;;19.00;51.88
77450;BME280;66536;53.150;18.172;2023-06-10T04:51:28;101585.83;;;18.95;51.35
77450;BME280;66536;53.150;18.172;2023-06-10T04:53:55;101586.56;;;18.92;51.00
77450;BME280;66536;53.150;18.172;2023-06-10T04:56:21;101592.10;;;18.88;51.19
77450;BME280;66536;53.150;18.172;2023-06-10T04:58:48;101593.23;;;18.86;51.33
77450;BME280;66536;53.150;18.172;2023-06-10T05:01:15;101598.73;;;18.85;50.86
77450;BME280;66536;53.150;18.172;2023-06-10T05:03:42;101601.78;;;18.83;51.00
77450;BME280;66536;53.150;18.172;2023-06-10T05:06:08;101607.33;;;18.81;50.87
77450;BME280;66536;53.150;18.172;2023-06-10T05:08:35;101602.85;;;18.77;51.12
77450;BME280;66536;53.150;18.172;2023-06-10T05:11:02;101604.05;;;18.74;50.89
77450;BME280;66536;53.150;18.172;2023-06-10T05:13:29;101603.15;;;18.70;50.80
77450;BME280;66536;53.150;18.172;2023-06-10T05:15:56;101607.73;;;18.65;50.95
77450;BME280;66536;53.150;18.172;2023-06-10T05:18:23;101601.80;;;18.62;51.00
77450;BME280;66536;53.150;18.172;2023-06-10T05:20:49;101605.95;;;18.55;50.88
77450;BME280;66536;53.150;18.172;2023-06-10T05:23:16;101605.70;;;18.50;50.71
77450;BME280;66536;53.150;18.172;2023-06-10T05:25:43;101605.56;;;18.43;50.85
77450;BME280;66536;53.150;18.172;2023-06-10T05:28:10;101604.01;;;18.40;50.98
77450;BME280;66536;53.150;18.172;2023-06-10T05:30:37;101603.70;;;18.38;50.93
77450;BME280;66536;53.150;18.172;2023-06-10T05:33:05;101598.96;;;18.39;51.00
77450;BME280;66536;53.150;18.172;2023-06-10T05:35:31;101599.50;;;18.42;50.96
77450;BME280;66536;53.150;18.172;2023-06-10T05:37:58;101596.45;;;18.45;50.79
77450;BME280;66536;53.150;18.172;2023-06-10T05:40:25;101602.28;;;18.48;50.82
77450;BME280;66536;53.150;18.172;2023-06-10T05:42:51;101602.88;;;18.51;50.70
77450;BME280;66536;53.150;18.172;2023-06-10T05:45:18;101606.41;;;18.52;50.27
77450;BME280;66536;53.150;18.172;2023-06-10T05:47:45;101606.15;;;18.53;50.31
77450;BME280;66536;53.150;18.172;2023-06-10T05:50:11;101607.45;;;18.55;50.09
77450;BME280;66536;53.150;18.172;2023-06-10T05:52:38;101607.66;;;18.58;50.34
77450;BME280;66536;53.150;18.172;2023-06-10T05:55:08;101607.52;;;18.64;50.42
77450;BME280;66536;53.150;18.172;2023-06-10T05:57:35;101606.30;;;18.77;50.20
77450;BME280;66536;53.150;18.172;2023-06-10T06:00:01;101610.40;;;18.93;49.97
77450;BME280;66536;53.150;18.172;2023-06-10T06:02:28;101616.26;;;19.08;49.71
77450;BME280;66536;53.150;18.172;2023-06-10T06:04:55;101615.58;;;19.19;49.63
77450;BME280;66536;53.150;18.172;2023-06-10T06:07:22;101611.60;;;19.29;49.70
77450;BME280;66536;53.150;18.172;2023-06-10T06:09:48;101613.02;;;19.46;49.52
77450;BME280;66536;53.150;18.172;2023-06-10T06:12:15;101607.26;;;19.63;49.23
77450;BME280;66536;53.150;18.172;2023-06-10T06:14:42;101608.67;;;19.79;48.72
77450;BME280;66536;53.150;18.172;2023-06-10T06:17:08;101608.52;;;19.96;48.56
77450;BME280;66536;53.150;18.172;2023-06-10T06:19:35;101608.19;;;20.13;47.79
77450;BME280;66536;53.150;18.172;2023-06-10T06:22:02;101605.60;;;20.29;47.78
77450;BME280;66536;53.150;18.172;2023-06-10T06:24:29;101610.03;;;20.46;47.17
77450;BME280;66536;53.150;18.172;2023-06-10T06:26:55;101613.90;;;20.55;46.95
77450;BME280;66536;53.150;18.172;2023-06-10T06:29:22;101619.06;;;20.61;46.71
77450;BME280;66536;53.150;18.172;2023-06-10T06:31:48;101623.40;;;20.62;46.65
77450;BME280;66536;53.150;18.172;2023-06-10T06:34:15;101622.06;;;20.60;46.75
77450;BME280;66536;53.150;18.172;2023-06-10T06:36:42;101616.80;;;20.59;46.55
77450;BME280;66536;53.150;18.172;2023-06-10T06:39:08;101615.41;;;20.64;46.58
77450;BME280;66536;53.150;18.172;2023-06-10T06:41:36;101616.89;;;20.77;46.05
77450;BME280;66536;53.150;18.172;2023-06-10T06:44:03;101616.08;;;20.85;45.84
77450;BME280;66536;53.150;18.172;2023-06-10T06:46:33;101615.89;;;20.94;45.53
77450;BME280;66536;53.150;18.172;2023-06-10T06:49:00;101620.23;;;21.02;45.44
77450;BME280;66536;53.150;18.172;2023-06-10T06:51:26;101620.71;;;21.10;46.00
77450;BME280;66536;53.150;18.172;2023-06-10T06:53:53;101616.30;;;21.11;45.86
77450;BME280;66536;53.150;18.172;2023-06-10T06:56:23;101626.75;;;21.01;45.75
77450;BME280;66536;53.150;18.172;2023-06-10T06:58:50;101627.92;;;20.93;46.17
77450;BME280;66536;53.150;18.172;2023-06-10T07:01:16;101632.67;;;20.94;46.22
77450;BME280;66536;53.150;18.172;2023-06-10T07:03:43;101629.79;;;21.05;45.74
77450;BME280;66536;53.150;18.172;2023-06-10T07:06:12;101636.81;;;21.08;45.82
77450;BME280;66536;53.150;18.172;2023-06-10T07:08:38;101639.90;;;21.07;45.97
77450;BME280;66536;53.150;18.172;2023-06-10T07:11:05;101637.25;;;21.10;45.97
77450;BME280;66536;53.150;18.172;2023-06-10T07:13:32;101635.48;;;21.13;46.32
77450;BME280;66536;53.150;18.172;2023-06-10T07:15:59;101632.69;;;21.21;45.93
77450;BME280;66536;53.150;18.172;2023-06-10T07:18:26;101633.71;;;21.25;46.27
77450;BME280;66536;53.150;18.172;2023-06-10T07:20:53;101633.73;;;21.35;46.39
77450;BME280;66536;53.150;18.172;2023-06-10T07:23:19;101628.70;;;21.48;45.98
77450;BME280;66536;53.150;18.172;2023-06-10T07:25:46;101635.46;;;21.61;45.69
77450;BME280;66536;53.150;18.172;2023-06-10T07:28:13;101635.95;;;21.74;45.12
77450;BME280;66536;53.150;18.172;2023-06-10T07:30:39;101625.98;;;21.87;44.91
77450;BME280;66536;53.150;18.172;2023-06-10T07:33:06;101627.30;;;22.00;44.59
77450;BME280;66536;53.150;18.172;2023-06-10T07:35:34;101626.50;;;22.12;44.53
77450;BME280;66536;53.150;18.172;2023-06-10T07:38:01;101628.90;;;22.23;44.57
77450;BME280;66536;53.150;18.172;2023-06-10T07:40:27;101628.73;;;22.42;44.11
77450;BME280;66536;53.150;18.172;2023-06-10T07:42:55;101632.77;;;22.54;43.16
77450;BME280;66536;53.150;18.172;2023-06-10T07:45:21;101631.38;;;22.68;42.36
77450;BME280;66536;53.150;18.172;2023-06-10T07:47:48;101636.30;;;22.80;41.69
77450;BME280;66536;53.150;18.172;2023-06-10T07:50:15;101641.43;;;22.92;41.00
77450;BME280;66536;53.150;18.172;2023-06-10T07:52:41;101636.98;;;23.02;40.55
77450;BME280;66536;53.150;18.172;2023-06-10T07:55:08;101636.50;;;23.13;40.70
77450;BME280;66536;53.150;18.172;2023-06-10T07:57:35;101637.61;;;23.25;39.99
77450;BME280;66536;53.150;18.172;2023-06-10T08:00:03;101634.81;;;23.35;39.87
77450;BME280;66536;53.150;18.172;2023-06-10T08:02:39;101635.28;;;23.39;39.78
77450;BME280;66536;53.150;18.172;2023-06-10T08:05:06;101648.75;;;23.42;39.28
77450;BME280;66536;53.150;18.172;2023-06-10T08:07:33;101647.55;;;23.35;38.98
77450;BME280;66536;53.150;18.172;2023-06-10T08:10:00;101644.70;;;23.31;39.64
77450;BME280;66536;53.150;18.172;2023-06-10T08:12:27;101658.01;;;23.33;39.13
77450;BME280;66536;53.150;18.172;2023-06-10T08:14:54;101652.89;;;23.32;39.20
77450;BME280;66536;53.150;18.172;2023-06-10T08:17:21;101655.74;;;23.33;39.48
77450;BME280;66536;53.150;18.172;2023-06-10T08:19:48;101655.98;;;23.40;39.44
77450;BME280;66536;53.150;18.172;2023-06-10T08:22:15;101661.01;;;23.46;39.14
77450;BME280;66536;53.150;18.172;2023-06-10T08:24:42;101660.89;;;23.54;39.09
77450;BME280;66536;53.150;18.172;2023-06-10T08:27:08;101664.30;;;23.62;39.12
77450;BME280;66536;53.150;18.172;2023-06-10T08:29:35;101666.19;;;23.67;38.61
77450;BME280;66536;53.150;18.172;2023-06-10T08:32:02;101663.70;;;23.69;38.40
77450;BME280;66536;53.150;18.172;2023-06-10T08:34:29;101670.52;;;23.71;38.48
77450;BME280;66536;53.150;18.172;2023-06-10T08:36:56;101667.19;;;23.73;38.55
77450;BME280;66536;53.150;18.172;2023-06-10T08:39:22;101672.39;;;23.80;38.73
77450;BME280;66536;53.150;18.172;2023-06-10T08:44:40;101676.19;;;23.83;38.23
77450;BME280;66536;53.150;18.172;2023-06-10T08:47:13;101674.55;;;23.79;38.20
77450;BME280;66536;53.150;18.172;2023-06-10T08:49:43;101676.67;;;23.82;38.31
77450;BME280;66536;53.150;18.172;2023-06-10T08:52:16;101673.95;;;23.86;38.27
77450;BME280;66536;53.150;18.172;2023-06-10T08:54:57;101673.50;;;23.97;38.19
77450;BME280;66536;53.150;18.172;2023-06-10T08:57:26;101682.65;;;24.05;37.86
77450;BME280;66536;53.150;18.172;2023-06-10T08:59:53;101671.59;;;24.08;37.91
77450;BME280;66536;53.150;18.172;2023-06-10T09:02:22;101671.48;;;24.14;37.98
77450;BME280;66536;53.150;18.172;2023-06-10T09:04:49;101671.92;;;24.24;37.75
77450;BME280;66536;53.150;18.172;2023-06-10T09:07:16;101669.84;;;24.37;37.55
77450;BME280;66536;53.150;18.172;2023-06-10T09:09:44;101667.63;;;24.45;37.30
77450;BME280;66536;53.150;18.172;2023-06-10T09:12:13;101672.44;;;24.53;37.05
77450;BME280;66536;53.150;18.172;2023-06-10T09:14:42;101661.96;;;24.53;36.50
77450;BME280;66536;53.150;18.172;2023-06-10T09:17:09;101659.65;;;24.58;36.37
77450;BME280;66536;53.150;18.172;2023-06-10T09:19:38;101672.64;;;24.64;36.01
77450;BME280;66536;53.150;18.172;2023-06-10T09:22:05;101667.20;;;24.71;35.85
77450;BME280;66536;53.150;18.172;2023-06-10T09:24:32;101666.52;;;24.79;36.15
77450;BME280;66536;53.150;18.172;2023-06-10T09:27:04;101663.16;;;24.82;35.76
77450;BME280;66536;53.150;18.172;2023-06-10T09:29:46;101664.64;;;24.83;35.76
77450;BME280;66536;53.150;18.172;2023-06-10T09:32:14;101665.38;;;24.84;35.40
77450;BME280;66536;53.150;18.172;2023-06-10T09:34:40;101667.33;;;24.83;35.18
77450;BME280;66536;53.150;18.172;2023-06-10T09:37:07;101666.27;;;24.93;35.17
77450;BME280;66536;53.150;18.172;2023-06-10T09:39:38;101659.52;;;25.01;35.14
77450;BME280;66536;53.150;18.172;2023-06-10T09:42:16;101653.58;;;25.07;35.43
77450;BME280;66536;53.150;18.172;2023-06-10T09:44:51;101655.48;;;25.15;34.51
77450;BME280;66536;53.150;18.172;2023-06-10T09:47:22;101659.66;;;25.20;34.01
77450;BME280;66536;53.150;18.172;2023-06-10T09:49:49;101651.45;;;25.14;32.87
77450;BME280;66536;53.150;18.172;2023-06-10T09:52:26;101653.60;;;25.11;32.94
77450;BME280;66536;53.150;18.172;2023-06-10T09:54:54;101649.69;;;25.11;32.06
77450;BME280;66536;53.150;18.172;2023-06-10T09:57:21;101651.02;;;25.10;32.63
77450;BME280;66536;53.150;18.172;2023-06-10T09:59:52;101654.39;;;25.18;32.59
77450;BME280;66536;53.150;18.172;2023-06-10T10:02:20;101658.04;;;25.22;32.01
77450;BME280;66536;53.150;18.172;2023-06-10T10:04:47;101657.04;;;25.18;31.53
77450;BME280;66536;53.150;18.172;2023-06-10T10:07:13;101655.86;;;25.18;32.09
77450;BME280;66536;53.150;18.172;2023-06-10T10:09:41;101655.66;;;25.28;32.09
77450;BME280;66536;53.150;18.172;2023-06-10T10:12:11;101663.05;;;25.40;31.61
77450;BME280;66536;53.150;18.172;2023-06-10T10:14:39;101665.56;;;25.43;30.47
77450;BME280;66536;53.150;18.172;2023-06-10T10:17:14;101661.77;;;25.41;30.63
77450;BME280;66536;53.150;18.172;2023-06-10T10:19:48;101668.05;;;25.33;30.26
77450;BME280;66536;53.150;18.172;2023-06-10T10:22:24;101656.37;;;25.38;31.15
77450;BME280;66536;53.150;18.172;2023-06-10T10:24:56;101655.88;;;25.42;30.86
77450;BME280;66536;53.150;18.172;2023-06-10T10:27:31;101650.48;;;25.40;30.53
77450;BME280;66536;53.150;18.172;2023-06-10T10:30:00;101670.39;;;25.35;30.87
77450;BME280;66536;53.150;18.172;2023-06-10T10:32:35;101656.46;;;25.33;31.12
77450;BME280;66536;53.150;18.172;2023-06-10T10:35:08;101660.09;;;25.38;31.46
77450;BME280;66536;53.150;18.172;2023-06-10T10:37:37;101655.30;;;25.45;30.67
77450;BME280;66536;53.150;18.172;2023-06-10T10:40:04;101651.48;;;25.45;30.14
77450;BME280;66536;53.150;18.172;2023-06-10T10:42:31;101653.00;;;25.48;30.02
77450;BME280;66536;53.150;18.172;2023-06-10T10:44:59;101649.30;;;25.51;29.71
77450;BME280;66536;53.150;18.172;2023-06-10T10:47:27;101647.64;;;25.52;30.14
77450;BME280;66536;53.150;18.172;2023-06-10T10:49:57;101655.60;;;25.58;30.19
77450;BME280;66536;53.150;18.172;2023-06-10T10:52:51;101648.23;;;25.68;29.01
77450;BME280;66536;53.150;18.172;2023-06-10T10:55:19;101651.04;;;25.67;29.68
77450;BME280;66536;53.150;18.172;2023-06-10T10:57:54;101654.78;;;25.64;29.78
77450;BME280;66536;53.150;18.172;2023-06-10T11:00:27;101653.38;;;25.62;29.73
77450;BME280;66536;53.150;18.172;2023-06-10T11:02:58;101656.46;;;25.62;29.33
77450;BME280;66536;53.150;18.172;2023-06-10T11:05:36;101656.84;;;25.65;28.76
77450;BME280;66536;53.150;18.172;2023-06-10T11:08:05;101652.08;;;25.77;29.29
77450;BME280;66536;53.150;18.172;2023-06-10T11:10:35;101654.09;;;25.83;29.37
77450;BME280;66536;53.150;18.172;2023-06-10T11:13:14;101644.73;;;25.96;29.22
77450;BME280;66536;53.150;18.172;2023-06-10T11:15:46;101648.53;;;26.04;28.93
77450;BME280;66536;53.150;18.172;2023-06-10T11:18:20;101640.27;;;26.09;29.06
77450;BME280;66536;53.150;18.172;2023-06-10T11:20:54;101636.95;;;26.09;28.52
77450;BME280;66536;53.150;18.172;2023-06-10T11:23:38;101638.05;;;26.00;28.27
77450;BME280;66536;53.150;18.172;2023-06-10T11:26:17;101643.25;;;25.96;28.16
77450;BME280;66536;53.150;18.172;2023-06-10T11:29:05;101639.61;;;25.99;27.73
77450;BME280;66536;53.150;18.172;2023-06-10T11:31:35;101640.25;;;26.09;27.91
77450;BME280;66536;53.150;18.172;2023-06-10T11:34:06;101640.11;;;26.19;27.12
77450;BME280;66536;53.150;18.172;2023-06-10T11:36:37;101639.60;;;26.21;26.98
77450;BME280;66536;53.150;18.172;2023-06-10T11:39:05;101636.61;;;26.15;26.39
77450;BME280;66536;53.150;18.172;2023-06-10T11:41:33;101639.52;;;26.15;26.46
77450;BME280;66536;53.150;18.172;2023-06-10T11:44:04;101631.84;;;26.18;26.13
77450;BME280;66536;53.150;18.172;2023-06-10T11:46:34;101628.14;;;26.15;25.83
77450;BME280;66536;53.150;18.172;2023-06-10T11:49:02;101644.54;;;26.04;24.38
77450;BME280;66536;53.150;18.172;2023-06-10T11:51:34;101640.88;;;25.96;23.60
77450;BME280;66536;53.150;18.172;2023-06-10T11:54:03;101641.76;;;25.84;22.81
77450;BME280;66536;53.150;18.172;2023-06-10T11:56:30;101640.48;;;25.80;22.75
77450;BME280;66536;53.150;18.172;2023-06-10T11:59:00;101637.67;;;25.80;23.21
77450;BME280;66536;53.150;18.172;2023-06-10T12:01:32;101629.79;;;25.87;22.87
77450;BME280;66536;53.150;18.172;2023-06-10T12:04:08;101631.41;;;25.93;22.86
77450;BME280;66536;53.150;18.172;2023-06-10T12:06:41;101627.67;;;25.99;23.23
77450;BME280;66536;53.150;18.172;2023-06-10T12:09:20;101625.44;;;26.04;22.49
77450;BME280;66536;53.150;18.172;2023-06-10T12:11:50;101623.36;;;26.06;22.54
77450;BME280;66536;53.150;18.172;2023-06-10T12:17:04;101634.54;;;26.02;18.90
77450;BME280;66536;53.150;18.172;2023-06-10T12:19:31;101635.60;;;25.93;19.28
77450;BME280;66536;53.150;18.172;2023-06-10T12:22:00;101627.23;;;25.88;20.00
77450;BME280;66536;53.150;18.172;2023-06-10T12:24:27;101625.15;;;25.93;20.36
77450;BME280;66536;53.150;18.172;2023-06-10T12:26:54;101624.95;;;26.01;19.48
77450;BME280;66536;53.150;18.172;2023-06-10T12:29:23;101626.77;;;26.02;19.33
77450;BME280;66536;53.150;18.172;2023-06-10T12:31:54;101633.80;;;26.00;19.27
77450;BME280;66536;53.150;18.172;2023-06-10T12:34:33;101625.91;;;25.95;19.74
77450;BME280;66536;53.150;18.172;2023-06-10T12:37:01;101632.39;;;25.90;19.26
77450;BME280;66536;53.150;18.172;2023-06-10T12:39:30;101631.05;;;25.89;19.62
77450;BME280;66536;53.150;18.172;2023-06-10T12:41:57;101634.27;;;25.89;20.13
77450;BME280;66536;53.150;18.172;2023-06-10T12:44:32;101629.38;;;25.94;20.70
77450;BME280;66536;53.150;18.172;2023-06-10T12:47:00;101620.09;;;26.08;21.21
77450;BME280;66536;53.150;18.172;2023-06-10T12:49:27;101626.33;;;26.18;21.25
77450;BME280;66536;53.150;18.172;2023-06-10T12:51:54;101614.60;;;26.10;21.85
77450;BME280;66536;53.150;18.172;2023-06-10T12:54:21;101608.59;;;26.07;22.26